KICL/ICL METAR and TAF weather

Enter ICAO airport designator
Station Type Date Time Source
KICL METAR 2020/07/08 00:55 UTC NOAA

KICL 080055Z AUTO 18003KT 10SM CLR 30/25 A2990 RMK AO2


Station Type Date Time Source
KICL Decoded METAR 2020/07/08 00:55 UTC NOAA

Clarinda, IA, United States (KICL) 40-43N 095-02W
Jul 07, 2020 - 08:55 PM EDT / 2020.07.08 0055 UTC
Wind: from the S (180 degrees) at 3 MPH (3 KT):0
Visibility: 10 mile(s):0
Sky conditions: clear
Temperature: 86 F (30 C)
Heat index: 96.8 F (36.0 C):1
Dew Point: 77 F (25 C)
Relative Humidity: 74%
Pressure (altimeter): 29.9 in. Hg (1012 hPa)
ob: KICL 080055Z AUTO 18003KT 10SM CLR 30/25 A2990 RMK AO2
cycle: 1

Station Type Date Time Source
KICL TAF UTC NOAA

Error!

Example: see airport list